createdAt,value
2024-01-05T00:00:03.641Z,618.00
2024-01-05T00:01:03.690Z,616.00
2024-01-05T00:02:03.536Z,617.00
2024-01-05T00:03:03.554Z,613.00
2024-01-05T00:04:03.591Z,613.00
2024-01-05T00:05:03.515Z,616.00
2024-01-05T00:06:03.580Z,617.00
2024-01-05T00:07:03.486Z,619.00
2024-01-05T00:08:03.439Z,617.00
2024-01-05T00:09:03.452Z,617.00
2024-01-05T00:10:03.419Z,614.00
2024-01-05T00:11:03.402Z,614.00
2024-01-05T00:13:03.374Z,617.00
2024-01-05T00:14:03.355Z,614.00
2024-01-05T00:15:03.398Z,612.00
2024-01-05T00:16:03.329Z,616.00
2024-01-05T00:17:03.328Z,614.00
2024-01-05T00:18:03.377Z,616.00
2024-01-05T00:19:03.345Z,615.00
2024-01-05T00:20:03.318Z,617.00
2024-01-05T00:21:03.294Z,614.00
2024-01-05T00:22:03.245Z,616.00
2024-01-05T00:23:03.222Z,615.00
2024-01-05T00:24:03.240Z,612.00
2024-01-05T00:25:03.205Z,618.00
2024-01-05T00:26:03.195Z,615.00
2024-01-05T00:27:03.191Z,614.00
2024-01-05T00:28:03.140Z,615.00
2024-01-05T00:29:03.126Z,615.00
2024-01-05T00:30:03.159Z,615.00
2024-01-05T00:31:03.203Z,619.00
2024-01-05T00:32:03.081Z,614.00
2024-01-05T00:33:03.174Z,614.00
2024-01-05T00:34:03.140Z,614.00
2024-01-05T00:35:03.009Z,619.00
2024-01-05T00:36:03.034Z,616.00
2024-01-05T00:37:02.986Z,614.00
2024-01-05T00:38:02.951Z,613.00
2024-01-05T00:39:02.913Z,617.00
2024-01-05T00:40:02.889Z,613.00
2024-01-05T00:41:02.866Z,613.00
2024-01-05T00:42:02.870Z,616.00
2024-01-05T00:43:02.822Z,618.00
2024-01-05T00:44:02.810Z,613.00
2024-01-05T00:45:02.833Z,615.00
2024-01-05T00:46:02.771Z,615.00
2024-01-05T00:47:02.735Z,615.00
2024-01-05T00:48:02.859Z,615.00
2024-01-05T00:49:02.720Z,615.00
2024-01-05T00:50:02.687Z,616.00
2024-01-05T00:51:02.686Z,618.00
2024-01-05T00:52:02.694Z,614.00
2024-01-05T00:53:02.633Z,614.00
2024-01-05T00:54:02.635Z,614.00
2024-01-05T00:55:02.613Z,615.00
2024-01-05T00:56:02.601Z,617.00
2024-01-05T00:57:02.632Z,616.00
2024-01-05T00:58:02.594Z,612.00
2024-01-05T00:59:02.579Z,615.00
2024-01-05T01:00:02.618Z,614.00
2024-01-05T01:01:02.619Z,615.00
2024-01-05T01:02:02.536Z,613.00
2024-01-05T01:03:02.637Z,616.00
2024-01-05T01:04:02.671Z,617.00
2024-01-05T01:05:02.542Z,615.00
2024-01-05T01:06:02.539Z,614.00
2024-01-05T01:07:02.491Z,620.00
2024-01-05T01:08:02.476Z,612.00
2024-01-05T01:09:02.481Z,615.00
2024-01-05T01:10:02.448Z,619.00
2024-01-05T01:11:02.450Z,614.00
2024-01-05T01:12:02.478Z,614.00
2024-01-05T01:13:02.438Z,619.00
2024-01-05T01:14:02.478Z,617.00
2024-01-05T01:15:02.466Z,614.00
2024-01-05T01:16:02.459Z,612.00
2024-01-05T01:17:02.423Z,616.00
2024-01-05T01:18:02.502Z,613.00
2024-01-05T01:19:02.750Z,615.00
2024-01-05T01:20:02.388Z,612.00
2024-01-05T01:21:02.429Z,612.00
2024-01-05T01:22:02.387Z,617.00
2024-01-05T01:23:02.401Z,620.00
2024-01-05T01:24:02.517Z,616.00
2024-01-05T01:25:02.406Z,616.00
2024-01-05T01:26:02.416Z,614.00
2024-01-05T01:27:02.403Z,616.00
2024-01-05T01:28:02.397Z,612.00
2024-01-05T01:29:02.379Z,618.00
2024-01-05T01:30:02.575Z,615.00
2024-01-05T01:31:02.471Z,617.00
2024-01-05T01:32:02.380Z,615.00
2024-01-05T01:33:02.450Z,618.00
2024-01-05T01:34:02.488Z,616.00
2024-01-05T01:35:02.457Z,619.00
2024-01-05T01:36:02.581Z,616.00
2024-01-05T01:37:02.501Z,619.00
2024-01-05T01:38:02.547Z,612.00
2024-01-05T01:39:02.607Z,620.00
2024-01-05T01:40:02.574Z,614.00
2024-01-05T01:41:02.604Z,610.00
2024-01-05T01:42:02.719Z,614.00
2024-01-05T01:43:02.744Z,613.00
2024-01-05T01:44:02.680Z,616.00
2024-01-05T01:45:02.704Z,617.00
2024-01-05T01:46:02.651Z,616.00
2024-01-05T01:47:02.639Z,614.00
2024-01-05T01:48:02.716Z,611.00
2024-01-05T01:49:02.750Z,615.00
2024-01-05T01:50:02.648Z,616.00
2024-01-05T01:51:02.604Z,615.00
2024-01-05T01:52:02.588Z,612.00
2024-01-05T01:53:02.583Z,622.00
2024-01-05T01:54:02.610Z,613.00
2024-01-05T01:55:02.545Z,617.00
2024-01-05T01:56:02.519Z,615.00
2024-01-05T01:57:02.524Z,616.00
2024-01-05T01:58:02.499Z,620.00
2024-01-05T01:59:02.549Z,617.00
2024-01-05T02:00:02.628Z,611.00
2024-01-05T02:01:02.493Z,613.00
2024-01-05T02:02:02.485Z,622.00
2024-01-05T02:03:02.582Z,615.00
2024-01-05T02:04:02.595Z,618.00
2024-01-05T02:05:02.592Z,619.00
2024-01-05T02:06:02.555Z,615.00
2024-01-05T02:07:02.495Z,619.00
2024-01-05T02:08:02.501Z,615.00
2024-01-05T02:09:02.580Z,621.00
2024-01-05T02:10:02.517Z,610.00
2024-01-05T02:11:02.482Z,617.00
2024-01-05T02:12:02.489Z,617.00
2024-01-05T02:13:02.426Z,615.00
2024-01-05T02:14:02.412Z,617.00
2024-01-05T02:15:02.476Z,616.00
2024-01-05T02:16:02.441Z,618.00
2024-01-05T02:17:02.389Z,622.00
2024-01-05T02:18:02.532Z,619.00
2024-01-05T02:19:02.521Z,614.00
2024-01-05T02:20:02.332Z,616.00
2024-01-05T02:21:02.463Z,615.00
2024-01-05T02:22:02.326Z,620.00
2024-01-05T02:23:02.292Z,616.00
2024-01-05T02:24:02.463Z,614.00
2024-01-05T02:25:02.362Z,613.00
2024-01-05T02:26:02.501Z,615.00
2024-01-05T02:27:02.506Z,619.00
2024-01-05T02:28:02.343Z,617.00
2024-01-05T02:29:02.345Z,619.00
2024-01-05T02:30:02.393Z,615.00
2024-01-05T02:31:02.611Z,615.00
2024-01-05T02:32:02.357Z,617.00
2024-01-05T02:33:02.440Z,617.00
2024-01-05T02:34:02.412Z,616.00
2024-01-05T02:35:02.455Z,616.00
2024-01-05T02:36:02.362Z,614.00
2024-01-05T02:37:02.314Z,619.00
2024-01-05T02:38:02.316Z,619.00
2024-01-05T02:39:02.333Z,614.00
2024-01-05T02:40:02.301Z,617.00
2024-01-05T02:41:02.283Z,618.00
2024-01-05T02:42:02.330Z,616.00
2024-01-05T02:43:02.268Z,616.00
2024-01-05T02:44:02.268Z,617.00
2024-01-05T02:45:02.283Z,615.00
2024-01-05T02:46:02.233Z,615.00
2024-01-05T02:47:02.224Z,615.00
2024-01-05T02:48:02.631Z,615.00
2024-01-05T02:49:02.346Z,619.00
2024-01-05T02:50:02.183Z,615.00
2024-01-05T02:51:02.243Z,617.00
2024-01-05T02:52:02.152Z,615.00
2024-01-05T02:53:02.158Z,613.00
2024-01-05T02:54:02.189Z,616.00
2024-01-05T02:55:02.128Z,619.00
2024-01-05T02:56:02.119Z,612.00
2024-01-05T02:57:02.136Z,614.00
2024-01-05T02:58:02.090Z,616.00
2024-01-05T02:59:02.080Z,618.00
2024-01-05T03:00:02.126Z,616.00
2024-01-05T03:01:02.147Z,613.00
2024-01-05T03:02:02.057Z,618.00
2024-01-05T03:03:02.062Z,617.00
2024-01-05T03:04:02.475Z,617.00
2024-01-05T03:05:02.075Z,619.00
2024-01-05T03:06:02.078Z,617.00
2024-01-05T03:07:02.050Z,619.00
2024-01-05T03:08:02.061Z,615.00
2024-01-05T03:09:02.096Z,617.00
2024-01-05T03:10:02.044Z,618.00
2024-01-05T03:11:02.031Z,616.00
2024-01-05T03:12:02.080Z,616.00
2024-01-05T03:13:02.021Z,616.00
2024-01-05T03:14:01.998Z,616.00
2024-01-05T03:15:02.058Z,618.00
2024-01-05T03:16:01.974Z,617.00
2024-01-05T03:17:01.980Z,616.00
2024-01-05T03:18:02.292Z,619.00
2024-01-05T03:19:02.232Z,620.00
2024-01-05T03:20:02.296Z,621.00
2024-01-05T03:21:02.092Z,612.00
2024-01-05T03:22:02.046Z,619.00
2024-01-05T03:23:02.028Z,618.00
2024-01-05T03:24:02.081Z,615.00
2024-01-05T03:25:02.049Z,619.00
2024-01-05T03:26:02.052Z,620.00
2024-01-05T03:27:02.056Z,615.00
2024-01-05T03:28:01.994Z,618.00
2024-01-05T03:29:02.017Z,617.00
2024-01-05T03:30:02.139Z,616.00
2024-01-05T03:31:02.184Z,616.00
2024-01-05T03:32:01.997Z,621.00
2024-01-05T03:33:02.262Z,616.00
2024-01-05T03:34:02.299Z,619.00
2024-01-05T03:35:02.030Z,615.00
2024-01-05T03:36:02.194Z,616.00
2024-01-05T03:37:02.110Z,616.00
2024-01-05T03:38:02.096Z,622.00
2024-01-05T03:39:02.287Z,620.00
2024-01-05T03:40:02.090Z,615.00
2024-01-05T03:41:02.059Z,613.00
2024-01-05T03:42:02.093Z,617.00
2024-01-05T03:43:02.032Z,616.00
2024-01-05T03:44:02.073Z,619.00
2024-01-05T03:45:02.276Z,619.00
2024-01-05T03:46:02.002Z,617.00
2024-01-05T03:47:02.001Z,611.00
2024-01-05T03:48:02.320Z,611.00
2024-01-05T03:49:02.199Z,615.00
2024-01-05T03:50:02.099Z,619.00
2024-01-05T03:51:02.090Z,617.00
2024-01-05T03:52:01.996Z,617.00
2024-01-05T03:53:02.058Z,611.00
2024-01-05T03:54:02.077Z,618.00
2024-01-05T03:55:02.030Z,617.00
2024-01-05T03:56:02.014Z,617.00
2024-01-05T03:57:02.036Z,615.00
2024-01-05T03:58:02.033Z,620.00
2024-01-05T03:59:02.036Z,614.00
2024-01-05T04:00:02.042Z,613.00
2024-01-05T04:01:02.064Z,619.00
2024-01-05T04:02:02.076Z,619.00
2024-01-05T04:03:02.241Z,612.00
2024-01-05T04:04:02.247Z,615.00
2024-01-05T04:05:02.182Z,617.00
2024-01-05T04:06:02.152Z,615.00
2024-01-05T04:07:02.065Z,617.00
2024-01-05T04:08:02.068Z,618.00
2024-01-05T04:09:02.163Z,619.00
2024-01-05T04:10:02.168Z,614.00
2024-01-05T04:11:02.062Z,615.00
2024-01-05T04:12:02.161Z,615.00
2024-01-05T04:13:02.075Z,613.00
2024-01-05T04:14:02.062Z,616.00
2024-01-05T04:15:02.095Z,614.00
2024-01-05T04:16:02.049Z,614.00
2024-01-05T04:17:02.106Z,610.00
2024-01-05T04:18:02.178Z,615.00
2024-01-05T04:19:02.147Z,614.00
2024-01-05T04:20:02.124Z,612.00
2024-01-05T04:21:02.145Z,617.00
2024-01-05T04:22:02.141Z,617.00
2024-01-05T04:23:01.987Z,617.00
2024-01-05T04:24:02.042Z,614.00
2024-01-05T04:25:02.199Z,614.00
2024-01-05T04:26:02.248Z,620.00
2024-01-05T04:27:02.279Z,614.00
2024-01-05T04:28:02.153Z,617.00
2024-01-05T04:29:02.164Z,614.00
2024-01-05T04:30:02.345Z,618.00
2024-01-05T04:31:02.359Z,615.00
2024-01-05T04:32:02.180Z,614.00
2024-01-05T04:33:02.179Z,618.00
2024-01-05T04:34:02.809Z,617.00
2024-01-05T04:35:02.160Z,619.00
2024-01-05T04:36:02.242Z,616.00
2024-01-05T04:37:02.249Z,619.00
2024-01-05T04:38:02.285Z,616.00
2024-01-05T04:39:02.402Z,617.00
2024-01-05T04:40:02.369Z,614.00
2024-01-05T04:41:02.358Z,616.00
2024-01-05T04:42:02.494Z,618.00
2024-01-05T04:43:02.337Z,615.00
2024-01-05T04:44:02.343Z,618.00
2024-01-05T04:45:02.452Z,620.00
2024-01-05T04:46:02.348Z,616.00
2024-01-05T04:47:02.299Z,617.00
2024-01-05T04:48:02.483Z,617.00
2024-01-05T04:49:02.404Z,618.00
2024-01-05T04:50:02.261Z,617.00
2024-01-05T04:51:02.290Z,613.00
2024-01-05T04:52:02.322Z,615.00
2024-01-05T04:53:02.311Z,618.00
2024-01-05T04:54:02.270Z,614.00
2024-01-05T04:55:02.323Z,613.00
2024-01-05T04:56:02.284Z,612.00
2024-01-05T04:57:02.297Z,612.00
2024-01-05T04:58:02.310Z,612.00
2024-01-05T04:59:02.300Z,613.00
2024-01-05T05:00:02.366Z,616.00
2024-01-05T05:01:02.307Z,613.00
2024-01-05T05:02:02.241Z,613.00
2024-01-05T05:03:02.422Z,618.00
2024-01-05T05:04:02.311Z,617.00
2024-01-05T05:05:02.258Z,616.00
2024-01-05T05:06:02.351Z,614.00
2024-01-05T05:07:02.223Z,616.00
2024-01-05T05:08:02.275Z,614.00
2024-01-05T05:09:02.330Z,617.00
2024-01-05T05:10:02.351Z,617.00
2024-01-05T05:11:02.205Z,616.00
2024-01-05T05:12:09.631Z,600.00
2024-01-05T05:13:09.588Z,600.00
2024-01-05T05:14:09.575Z,600.00
2024-01-05T05:15:09.596Z,600.00
2024-01-05T05:16:09.537Z,600.00
2024-01-05T05:17:09.527Z,601.00
2024-01-05T05:18:09.621Z,604.00
2024-01-05T05:19:09.659Z,602.00
2024-01-05T05:20:09.481Z,608.00
2024-01-05T05:21:09.493Z,605.00
2024-01-05T05:22:09.459Z,602.00
2024-01-05T05:23:09.444Z,607.00
2024-01-05T05:24:09.441Z,606.00
2024-01-05T05:25:09.396Z,602.00
2024-01-05T05:26:09.386Z,601.00
2024-01-05T05:27:09.393Z,603.00
2024-01-05T05:28:09.376Z,605.00
2024-01-05T05:29:10.216Z,605.00
2024-01-05T05:30:09.436Z,603.00
2024-01-05T05:31:09.444Z,606.00
2024-01-05T05:32:09.304Z,605.00
2024-01-05T05:33:09.372Z,601.00
2024-01-05T05:34:09.394Z,603.00
2024-01-05T05:35:09.259Z,602.00
2024-01-05T05:36:09.269Z,602.00
2024-01-05T05:37:09.251Z,603.00
2024-01-05T05:38:09.208Z,603.00
2024-01-05T05:39:09.238Z,606.00
2024-01-05T05:40:09.193Z,607.00
2024-01-05T05:41:09.174Z,602.00
2024-01-05T05:42:09.190Z,604.00
2024-01-05T05:43:09.148Z,603.00
2024-01-05T05:44:09.146Z,607.00
2024-01-05T05:45:09.188Z,602.00
2024-01-05T05:46:09.112Z,607.00
2024-01-05T05:47:09.104Z,607.00
2024-01-05T05:48:09.192Z,608.00
2024-01-05T05:49:09.125Z,606.00
2024-01-05T05:50:09.044Z,606.00
2024-01-05T05:51:09.057Z,607.00
2024-01-05T05:52:09.023Z,608.00
2024-01-05T05:53:09.005Z,607.00
2024-01-05T05:54:09.045Z,605.00
2024-01-05T05:55:09.720Z,604.00
2024-01-05T05:56:08.966Z,610.00
2024-01-05T05:57:09.017Z,609.00
2024-01-05T05:58:08.940Z,608.00
2024-01-05T05:59:08.927Z,602.00
2024-01-05T06:00:09.976Z,606.00
2024-01-05T06:01:08.928Z,608.00
2024-01-05T06:02:08.903Z,608.00
2024-01-05T06:03:11.665Z,607.00
2024-01-05T06:04:09.135Z,607.00
2024-01-05T06:05:08.879Z,607.00
2024-01-05T06:06:08.929Z,605.00
2024-01-05T06:07:08.960Z,605.00
2024-01-05T06:08:08.855Z,611.00
2024-01-05T06:09:08.918Z,607.00
2024-01-05T06:10:08.847Z,609.00
2024-01-05T06:11:08.823Z,606.00
2024-01-05T06:12:08.869Z,607.00
2024-01-05T06:13:08.813Z,605.00
2024-01-05T06:14:08.805Z,606.00
2024-01-05T06:15:08.837Z,605.00
2024-01-05T06:16:08.803Z,606.00
2024-01-05T06:17:08.790Z,606.00
2024-01-05T06:18:08.977Z,609.00
2024-01-05T06:19:08.863Z,613.00
2024-01-05T06:20:08.768Z,606.00
2024-01-05T06:21:08.828Z,609.00
2024-01-05T06:22:08.752Z,606.00
2024-01-05T06:23:08.900Z,603.00
2024-01-05T06:24:08.878Z,604.00
2024-01-05T06:25:08.729Z,605.00
2024-01-05T06:26:08.723Z,607.00
2024-01-05T06:27:08.730Z,603.00
2024-01-05T06:28:08.718Z,606.00
2024-01-05T06:29:08.685Z,605.00
2024-01-05T06:30:08.802Z,602.00
2024-01-05T06:31:08.867Z,605.00
2024-01-05T06:32:08.702Z,603.00
2024-01-05T06:33:08.910Z,605.00
2024-01-05T06:34:08.683Z,607.00
2024-01-05T06:35:08.733Z,606.00
2024-01-05T06:36:08.718Z,609.00
2024-01-05T06:37:08.613Z,606.00
2024-01-05T06:38:08.587Z,605.00
2024-01-05T06:39:08.685Z,604.00
2024-01-05T06:40:08.608Z,602.00
2024-01-05T06:41:08.624Z,609.00
2024-01-05T06:42:09.292Z,604.00
2024-01-05T06:43:08.609Z,604.00
2024-01-05T06:44:08.519Z,604.00
2024-01-05T06:45:08.625Z,605.00
2024-01-05T06:46:08.505Z,608.00
2024-01-05T06:47:08.501Z,610.00
2024-01-05T06:48:08.675Z,604.00
2024-01-05T06:49:08.787Z,605.00
2024-01-05T06:50:08.617Z,611.00
2024-01-05T06:51:08.468Z,610.00
2024-01-05T06:52:08.750Z,610.00
2024-01-05T06:53:08.468Z,608.00
2024-01-05T06:54:08.524Z,606.00
2024-01-05T06:55:08.515Z,604.00
2024-01-05T06:56:08.565Z,606.00
2024-01-05T06:57:08.641Z,605.00
2024-01-05T06:58:08.491Z,611.00
2024-01-05T06:59:08.578Z,606.00
2024-01-05T07:00:08.651Z,607.00
2024-01-05T07:01:08.607Z,611.00
2024-01-05T07:02:08.496Z,604.00
2024-01-05T07:03:08.687Z,608.00
2024-01-05T07:04:08.561Z,605.00
2024-01-05T07:05:08.516Z,602.00
2024-01-05T07:06:08.500Z,603.00
2024-01-05T07:07:08.501Z,608.00
2024-01-05T07:08:08.493Z,603.00
2024-01-05T07:09:08.553Z,604.00
2024-01-05T07:10:08.520Z,605.00
2024-01-05T07:11:08.533Z,603.00
2024-01-05T07:12:08.561Z,609.00
2024-01-05T07:13:08.604Z,606.00
2024-01-05T07:14:08.613Z,609.00
2024-01-05T07:15:08.681Z,604.00
2024-01-05T07:16:08.616Z,610.00
2024-01-05T07:17:08.619Z,609.00
2024-01-05T07:18:08.830Z,608.00
2024-01-05T07:19:08.792Z,603.00
2024-01-05T07:20:08.661Z,606.00
2024-01-05T07:21:08.679Z,604.00
2024-01-05T07:22:08.639Z,609.00
2024-01-05T07:23:08.664Z,605.00
2024-01-05T07:24:08.703Z,608.00
2024-01-05T07:25:08.706Z,609.00
2024-01-05T07:26:08.753Z,604.00
2024-01-05T07:27:08.821Z,606.00
2024-01-05T07:28:08.820Z,608.00
2024-01-05T07:29:08.859Z,606.00
2024-01-05T07:30:08.958Z,607.00
2024-01-05T07:31:08.947Z,606.00
2024-01-05T07:32:08.925Z,607.00
2024-01-05T07:33:09.041Z,605.00
2024-01-05T07:34:09.071Z,606.00
2024-01-05T07:35:08.966Z,602.00
2024-01-05T07:36:08.978Z,609.00
2024-01-05T07:37:08.992Z,605.00
2024-01-05T07:38:09.013Z,606.00
2024-01-05T07:39:09.045Z,609.00
2024-01-05T07:40:09.056Z,608.00
2024-01-05T07:41:09.063Z,608.00
2024-01-05T07:42:09.109Z,607.00
2024-01-05T07:43:09.140Z,608.00
2024-01-05T07:44:09.143Z,605.00
2024-01-05T07:45:09.331Z,604.00
2024-01-05T07:46:09.180Z,604.00
2024-01-05T07:47:09.169Z,609.00
2024-01-05T07:48:09.354Z,605.00
2024-01-05T07:49:09.351Z,601.00
2024-01-05T07:50:09.217Z,604.00
2024-01-05T07:51:09.260Z,603.00
2024-01-05T07:52:09.249Z,605.00
2024-01-05T07:53:09.253Z,608.00
2024-01-05T07:54:09.386Z,600.00
2024-01-05T07:55:09.296Z,605.00
2024-01-05T07:56:09.301Z,605.00
2024-01-05T07:57:09.304Z,604.00
2024-01-05T07:58:09.383Z,612.00
2024-01-05T07:59:09.298Z,606.00
2024-01-05T08:00:09.353Z,606.00
2024-01-05T08:01:09.343Z,608.00
2024-01-05T08:02:09.340Z,610.00
2024-01-05T08:03:09.414Z,608.00
2024-01-05T08:04:09.588Z,606.00
2024-01-05T08:05:09.384Z,609.00
2024-01-05T08:06:09.442Z,606.00
2024-01-05T08:07:09.491Z,609.00
2024-01-05T08:08:09.421Z,611.00
2024-01-05T08:09:09.516Z,606.00
2024-01-05T08:10:09.428Z,607.00
2024-01-05T08:11:09.432Z,607.00
2024-01-05T08:12:09.446Z,603.00
2024-01-05T08:13:09.421Z,605.00
2024-01-05T08:14:09.428Z,608.00
2024-01-05T08:15:09.534Z,607.00
2024-01-05T08:16:09.460Z,604.00
2024-01-05T08:17:09.479Z,602.00
2024-01-05T08:18:09.513Z,609.00
2024-01-05T08:19:09.560Z,609.00
2024-01-05T08:20:09.429Z,609.00
2024-01-05T08:21:09.452Z,607.00
2024-01-05T08:22:09.445Z,611.00
2024-01-05T08:23:09.449Z,610.00
2024-01-05T08:24:09.491Z,611.00
2024-01-05T08:25:09.533Z,605.00
2024-01-05T08:26:09.464Z,608.00
2024-01-05T08:27:09.509Z,610.00
2024-01-05T08:28:09.436Z,605.00
2024-01-05T08:29:09.473Z,610.00
2024-01-05T08:30:09.606Z,606.00
2024-01-05T08:31:09.696Z,609.00
2024-01-05T08:32:09.538Z,606.00
2024-01-05T08:33:09.661Z,604.00
2024-01-05T08:34:09.754Z,608.00
2024-01-05T08:35:09.637Z,612.00
2024-01-05T08:36:09.679Z,606.00
2024-01-05T08:37:09.653Z,607.00
2024-01-05T08:38:09.701Z,607.00
2024-01-05T08:39:09.748Z,610.00
2024-01-05T08:40:09.745Z,611.00
2024-01-05T08:41:09.777Z,609.00
2024-01-05T08:42:10.099Z,611.00
2024-01-05T08:43:09.889Z,607.00
2024-01-05T08:44:09.913Z,610.00
2024-01-05T08:45:09.943Z,610.00
2024-01-05T08:46:09.917Z,611.00
2024-01-05T08:47:09.948Z,608.00
2024-01-05T08:48:10.131Z,610.00
2024-01-05T08:49:10.073Z,609.00
2024-01-05T08:50:10.138Z,610.00
2024-01-05T08:51:10.143Z,609.00
2024-01-05T08:52:10.348Z,605.00
2024-01-05T08:53:10.144Z,607.00
2024-01-05T08:54:10.172Z,605.00
2024-01-05T08:55:10.161Z,607.00
2024-01-05T08:56:10.184Z,606.00
2024-01-05T08:57:10.210Z,605.00
2024-01-05T08:58:10.285Z,602.00
2024-01-05T08:59:10.222Z,606.00
2024-01-05T09:00:10.272Z,605.00
2024-01-05T09:01:10.350Z,608.00
2024-01-05T09:02:10.607Z,604.00
2024-01-05T09:03:10.402Z,609.00
2024-01-05T09:04:10.300Z,609.00
2024-01-05T09:05:10.508Z,604.00
2024-01-05T09:06:10.400Z,606.00
2024-01-05T09:07:10.453Z,607.00
2024-01-05T09:08:10.460Z,610.00
2024-01-05T09:09:10.594Z,606.00
2024-01-05T09:10:10.530Z,610.00
2024-01-05T09:11:10.544Z,605.00
2024-01-05T09:12:10.859Z,608.00
2024-01-05T09:13:10.580Z,608.00
2024-01-05T09:14:10.612Z,606.00
2024-01-05T09:15:10.654Z,606.00
2024-01-05T09:16:10.600Z,606.00
2024-01-05T09:17:10.652Z,608.00
2024-01-05T09:18:10.846Z,610.00
2024-01-05T09:19:10.780Z,610.00
2024-01-05T09:20:10.797Z,600.00
2024-01-05T09:21:10.826Z,611.00
2024-01-05T09:22:11.138Z,609.00
2024-01-05T09:23:10.880Z,604.00
2024-01-05T09:24:10.932Z,610.00
2024-01-05T09:25:10.996Z,608.00
2024-01-05T09:26:10.999Z,610.00
2024-01-05T09:27:11.075Z,607.00
2024-01-05T09:28:11.080Z,609.00
2024-01-05T09:29:11.125Z,604.00
2024-01-05T09:30:11.222Z,609.00
2024-01-05T09:31:11.369Z,607.00
2024-01-05T09:32:11.672Z,609.00
2024-01-05T09:33:11.399Z,606.00
2024-01-05T09:34:11.462Z,607.00
2024-01-05T09:35:11.344Z,605.00
2024-01-05T09:36:11.462Z,608.00
2024-01-05T09:37:11.386Z,607.00
2024-01-05T09:38:11.442Z,606.00
2024-01-05T09:39:11.575Z,606.00
2024-01-05T09:40:11.596Z,606.00
2024-01-05T09:41:11.630Z,608.00
2024-01-05T09:42:11.968Z,609.00
2024-01-05T09:43:11.706Z,608.00
2024-01-05T09:44:11.738Z,608.00
2024-01-05T09:45:11.811Z,611.00
2024-01-05T09:46:11.840Z,612.00
2024-01-05T09:47:11.889Z,606.00
2024-01-05T09:48:12.023Z,614.00
2024-01-05T09:49:12.038Z,610.00
2024-01-05T09:50:12.003Z,610.00
2024-01-05T09:51:11.887Z,611.00
2024-01-05T09:52:12.205Z,610.00
2024-01-05T09:53:11.979Z,609.00
2024-01-05T09:54:12.014Z,609.00
2024-01-05T09:55:12.013Z,605.00
2024-01-05T09:56:12.083Z,611.00
2024-01-05T09:57:12.110Z,608.00
2024-01-05T09:58:12.070Z,606.00
2024-01-05T09:59:12.109Z,614.00
2024-01-05T10:00:12.156Z,610.00
2024-01-05T10:01:12.174Z,610.00
2024-01-05T10:02:12.145Z,610.00
2024-01-05T10:03:12.208Z,609.00
2024-01-05T10:04:12.267Z,609.00
2024-01-05T10:05:12.243Z,613.00
2024-01-05T10:06:12.369Z,610.00
2024-01-05T10:07:12.513Z,612.00
2024-01-05T10:08:12.344Z,608.00
2024-01-05T10:09:12.363Z,610.00
2024-01-05T10:10:12.353Z,609.00
2024-01-05T10:11:12.362Z,610.00
2024-01-05T10:12:12.410Z,612.00
2024-01-05T10:13:12.410Z,609.00
2024-01-05T10:14:12.423Z,610.00
2024-01-05T10:15:12.440Z,609.00
2024-01-05T10:16:12.423Z,609.00
2024-01-05T10:17:12.417Z,608.00
2024-01-05T10:18:12.518Z,610.00
2024-01-05T10:19:12.572Z,613.00
2024-01-05T10:20:12.489Z,608.00
2024-01-05T10:21:12.602Z,607.00
2024-01-05T10:22:12.532Z,611.00
2024-01-05T10:23:12.573Z,609.00
2024-01-05T10:24:12.618Z,612.00
2024-01-05T10:25:12.664Z,609.00
2024-01-05T10:26:12.736Z,606.00
2024-01-05T10:27:12.837Z,611.00
2024-01-05T10:28:12.789Z,607.00
2024-01-05T10:29:12.830Z,610.00
2024-01-05T10:30:12.989Z,609.00
2024-01-05T10:31:13.027Z,607.00
2024-01-05T10:32:12.976Z,607.00
2024-01-05T10:33:13.130Z,613.00
2024-01-05T10:34:13.157Z,612.00
2024-01-05T10:35:13.116Z,605.00
2024-01-05T10:36:13.200Z,606.00
2024-01-05T10:37:13.243Z,608.00
2024-01-05T10:38:13.305Z,610.00
2024-01-05T10:39:13.387Z,606.00
2024-01-05T10:40:13.416Z,604.00
2024-01-05T10:41:13.475Z,605.00
2024-01-05T10:42:13.541Z,606.00
2024-01-05T10:43:13.572Z,603.00
2024-01-05T10:44:13.641Z,605.00
2024-01-05T10:45:13.726Z,602.00
2024-01-05T10:46:13.749Z,604.00
2024-01-05T10:47:13.820Z,606.00
2024-01-05T10:48:13.979Z,603.00
2024-01-05T10:49:14.020Z,608.00
2024-01-05T10:50:14.058Z,606.00
2024-01-05T10:51:14.028Z,608.00
2024-01-05T10:52:14.058Z,608.00
2024-01-05T10:53:14.094Z,607.00
2024-01-05T10:54:14.234Z,603.00
2024-01-05T10:55:14.202Z,607.00
2024-01-05T10:56:14.266Z,608.00
2024-01-05T10:57:14.360Z,604.00
2024-01-05T10:58:14.334Z,611.00
2024-01-05T10:59:14.377Z,607.00
2024-01-05T11:00:14.561Z,604.00
2024-01-05T11:01:14.593Z,605.00
2024-01-05T11:02:14.524Z,604.00
2024-01-05T11:03:14.676Z,611.00
2024-01-05T11:04:14.701Z,608.00
2024-01-05T11:05:15.585Z,606.00
2024-01-05T11:06:14.785Z,606.00
2024-01-05T11:07:14.880Z,604.00
2024-01-05T11:08:14.805Z,606.00
2024-01-05T11:09:14.867Z,605.00
2024-01-05T11:10:14.918Z,602.00
2024-01-05T11:11:14.980Z,603.00
2024-01-05T11:12:15.025Z,609.00
2024-01-05T11:13:15.070Z,608.00
2024-01-05T11:14:15.194Z,607.00
2024-01-05T11:15:15.239Z,605.00
2024-01-05T11:16:15.223Z,602.00
2024-01-05T11:17:15.277Z,602.00
2024-01-05T11:18:15.370Z,604.00
2024-01-05T11:19:15.419Z,603.00
2024-01-05T11:20:15.408Z,607.00
2024-01-05T11:21:15.508Z,601.00
2024-01-05T11:22:15.506Z,607.00
2024-01-05T11:23:15.564Z,602.00
2024-01-05T11:24:17.626Z,606.00
2024-01-05T11:25:15.590Z,602.00
2024-01-05T11:26:15.563Z,606.00
2024-01-05T11:27:15.582Z,602.00
2024-01-05T11:28:15.540Z,603.00
2024-01-05T11:29:15.525Z,606.00
2024-01-05T11:30:15.595Z,601.00
2024-01-05T11:31:15.626Z,605.00
2024-01-05T11:32:15.510Z,605.00
2024-01-05T11:33:18.407Z,605.00
2024-01-05T11:34:16.586Z,605.00
2024-01-05T11:35:15.458Z,606.00
2024-01-05T11:36:15.432Z,607.00
2024-01-05T11:37:15.429Z,609.00
2024-01-05T11:38:15.401Z,609.00
2024-01-05T11:39:15.431Z,611.00
2024-01-05T11:40:15.378Z,611.00
2024-01-05T11:41:15.355Z,606.00
2024-01-05T11:42:15.336Z,607.00
2024-01-05T11:43:15.376Z,608.00
2024-01-05T11:44:15.418Z,604.00
2024-01-05T11:45:15.528Z,606.00
2024-01-05T11:46:18.744Z,606.00
2024-01-05T11:47:16.496Z,606.00
2024-01-05T11:48:15.705Z,607.00
2024-01-05T11:49:15.541Z,607.00
2024-01-05T11:50:15.485Z,607.00
2024-01-05T11:51:15.513Z,606.00
2024-01-05T11:52:15.450Z,606.00
2024-01-05T11:53:15.532Z,607.00
2024-01-05T11:54:15.422Z,607.00
2024-01-05T11:55:15.426Z,605.00
2024-01-05T11:56:15.472Z,605.00
2024-01-05T11:57:15.590Z,608.00
2024-01-05T11:58:15.557Z,609.00
2024-01-05T11:59:15.584Z,610.00
2024-01-05T12:00:15.761Z,608.00
2024-01-05T12:01:15.732Z,611.00
2024-01-05T12:02:15.748Z,609.00
2024-01-05T12:03:15.852Z,610.00
2024-01-05T12:04:16.005Z,609.00
2024-01-05T12:05:15.842Z,606.00
2024-01-05T12:06:16.086Z,609.00
2024-01-05T12:07:15.912Z,604.00
2024-01-05T12:08:15.972Z,606.00
2024-01-05T12:09:16.028Z,607.00
2024-01-05T12:10:16.001Z,606.00
2024-01-05T12:11:16.045Z,608.00
2024-01-05T12:12:16.127Z,608.00
2024-01-05T12:13:16.131Z,608.00
2024-01-05T12:14:16.181Z,606.00
2024-01-05T12:15:16.229Z,609.00
2024-01-05T12:16:16.258Z,606.00
2024-01-05T12:17:16.410Z,610.00
2024-01-05T12:18:23.299Z,606.00
2024-01-05T12:19:17.521Z,606.00
2024-01-05T12:20:16.333Z,606.00
2024-01-05T12:21:16.385Z,606.00
2024-01-05T12:22:16.297Z,607.00
2024-01-05T12:23:16.287Z,608.00
2024-01-05T12:24:16.284Z,608.00
2024-01-05T12:25:16.239Z,603.00
2024-01-05T12:26:16.211Z,606.00
2024-01-05T12:27:16.229Z,613.00
2024-01-05T12:28:16.239Z,606.00
2024-01-05T12:29:16.242Z,607.00